sensor_id;sensor_type;location;lat;lon;timestamp;P1;durP1;ratioP1;P2;durP2;ratioP2
10896;SDS011;5501;51.176;6.470;2023-07-09T00:03:02;6.20;;;5.60;;
10896;SDS011;5501;51.176;6.470;2023-07-09T00:08:03;7.22;;;6.05;;
10896;SDS011;5501;51.176;6.470;2023-07-09T00:13:05;6.78;;;5.53;;
10896;SDS011;5501;51.176;6.470;2023-07-09T00:18:07;7.70;;;5.63;;
10896;SDS011;5501;51.176;6.470;2023-07-09T00:23:10;6.82;;;4.63;;
10896;SDS011;5501;51.176;6.470;2023-07-09T00:28:15;8.75;;;5.20;;
10896;SDS011;5501;51.176;6.470;2023-07-09T00:33:19;7.55;;;5.85;;
10896;SDS011;5501;51.176;6.470;2023-07-09T00:38:21;7.57;;;5.57;;
10896;SDS011;5501;51.176;6.470;2023-07-09T00:43:23;5.95;;;5.35;;
10896;SDS011;5501;51.176;6.470;2023-07-09T00:48:25;8.90;;;5.57;;
10896;SDS011;5501;51.176;6.470;2023-07-09T00:53:33;6.07;;;5.00;;
10896;SDS011;5501;51.176;6.470;2023-07-09T00:58:34;7.72;;;5.80;;
10896;SDS011;5501;51.176;6.470;2023-07-09T01:03:40;7.40;;;5.80;;
10896;SDS011;5501;51.176;6.470;2023-07-09T01:08:46;6.75;;;5.25;;
10896;SDS011;5501;51.176;6.470;2023-07-09T01:13:55;8.40;;;5.57;;
10896;SDS011;5501;51.176;6.470;2023-07-09T01:18:59;7.65;;;5.40;;
10896;SDS011;5501;51.176;6.470;2023-07-09T01:24:15;6.50;;;5.53;;
10896;SDS011;5501;51.176;6.470;2023-07-09T01:29:37;7.00;;;6.05;;
10896;SDS011;5501;51.176;6.470;2023-07-09T01:34:39;6.82;;;5.57;;
10896;SDS011;5501;51.176;6.470;2023-07-09T01:39:42;7.80;;;5.07;;
10896;SDS011;5501;51.176;6.470;2023-07-09T01:44:44;6.80;;;5.35;;
10896;SDS011;5501;51.176;6.470;2023-07-09T01:49:47;7.82;;;6.07;;
10896;SDS011;5501;51.176;6.470;2023-07-09T01:54:48;12.20;;;6.00;;
10896;SDS011;5501;51.176;6.470;2023-07-09T01:59:50;5.78;;;5.15;;
10896;SDS011;5501;51.176;6.470;2023-07-09T02:04:54;6.70;;;5.57;;
10896;SDS011;5501;51.176;6.470;2023-07-09T02:09:58;6.93;;;5.90;;
10896;SDS011;5501;51.176;6.470;2023-07-09T02:15:00;8.57;;;5.75;;
10896;SDS011;5501;51.176;6.470;2023-07-09T02:20:03;7.03;;;5.90;;
10896;SDS011;5501;51.176;6.470;2023-07-09T02:25:06;5.78;;;5.18;;
10896;SDS011;5501;51.176;6.470;2023-07-09T02:30:09;7.97;;;6.05;;
10896;SDS011;5501;51.176;6.470;2023-07-09T02:35:12;5.95;;;5.32;;
10896;SDS011;5501;51.176;6.470;2023-07-09T02:40:14;11.48;;;5.72;;
10896;SDS011;5501;51.176;6.470;2023-07-09T02:45:17;6.65;;;6.00;;
10896;SDS011;5501;51.176;6.470;2023-07-09T02:50:20;6.47;;;5.72;;
10896;SDS011;5501;51.176;6.470;2023-07-09T02:55:22;8.85;;;6.03;;
10896;SDS011;5501;51.176;6.470;2023-07-09T03:00:24;6.75;;;6.05;;
10896;SDS011;5501;51.176;6.470;2023-07-09T03:05:26;13.93;;;6.05;;
10896;SDS011;5501;51.176;6.470;2023-07-09T03:10:28;6.60;;;5.93;;
10896;SDS011;5501;51.176;6.470;2023-07-09T03:15:30;11.43;;;6.10;;
10896;SDS011;5501;51.176;6.470;2023-07-09T03:20:32;9.40;;;6.03;;
10896;SDS011;5501;51.176;6.470;2023-07-09T03:25:34;7.10;;;6.38;;
10896;SDS011;5501;51.176;6.470;2023-07-09T03:30:39;8.07;;;6.15;;
10896;SDS011;5501;51.176;6.470;2023-07-09T03:35:42;6.82;;;6.13;;
10896;SDS011;5501;51.176;6.470;2023-07-09T03:40:44;7.32;;;5.95;;
10896;SDS011;5501;51.176;6.470;2023-07-09T03:45:46;7.80;;;6.50;;
10896;SDS011;5501;51.176;6.470;2023-07-09T03:50:48;7.28;;;6.05;;
10896;SDS011;5501;51.176;6.470;2023-07-09T03:55:54;8.40;;;6.40;;
10896;SDS011;5501;51.176;6.470;2023-07-09T04:00:56;10.48;;;5.90;;
10896;SDS011;5501;51.176;6.470;2023-07-09T04:05:58;7.72;;;5.82;;
10896;SDS011;5501;51.176;6.470;2023-07-09T04:11:00;8.73;;;5.97;;
10896;SDS011;5501;51.176;6.470;2023-07-09T04:16:03;7.18;;;5.93;;
10896;SDS011;5501;51.176;6.470;2023-07-09T04:21:05;6.60;;;5.75;;
10896;SDS011;5501;51.176;6.470;2023-07-09T04:26:08;9.52;;;6.03;;
10896;SDS011;5501;51.176;6.470;2023-07-09T04:31:14;6.88;;;6.10;;
10896;SDS011;5501;51.176;6.470;2023-07-09T04:36:15;7.35;;;6.15;;
10896;SDS011;5501;51.176;6.470;2023-07-09T04:41:17;6.82;;;5.88;;
10896;SDS011;5501;51.176;6.470;2023-07-09T04:46:19;6.90;;;6.20;;
10896;SDS011;5501;51.176;6.470;2023-07-09T04:51:21;7.10;;;6.40;;
10896;SDS011;5501;51.176;6.470;2023-07-09T04:56:22;10.90;;;6.43;;
10896;SDS011;5501;51.176;6.470;2023-07-09T05:01:24;7.10;;;6.40;;
10896;SDS011;5501;51.176;6.470;2023-07-09T05:06:26;10.23;;;6.38;;
10896;SDS011;5501;51.176;6.470;2023-07-09T05:11:28;8.50;;;5.57;;
10896;SDS011;5501;51.176;6.470;2023-07-09T05:16:29;9.00;;;6.38;;
10896;SDS011;5501;51.176;6.470;2023-07-09T05:21:31;8.38;;;6.05;;
10896;SDS011;5501;51.176;6.470;2023-07-09T05:26:33;6.03;;;5.43;;
10896;SDS011;5501;51.176;6.470;2023-07-09T05:31:34;6.53;;;5.50;;
10896;SDS011;5501;51.176;6.470;2023-07-09T05:36:37;7.35;;;6.18;;
10896;SDS011;5501;51.176;6.470;2023-07-09T05:41:40;10.25;;;6.55;;
10896;SDS011;5501;51.176;6.470;2023-07-09T05:46:41;10.57;;;5.90;;
10896;SDS011;5501;51.176;6.470;2023-07-09T05:51:43;8.50;;;6.07;;
10896;SDS011;5501;51.176;6.470;2023-07-09T05:56:44;5.55;;;4.90;;
10896;SDS011;5501;51.176;6.470;2023-07-09T06:01:46;6.60;;;5.93;;
10896;SDS011;5501;51.176;6.470;2023-07-09T06:06:47;10.77;;;6.25;;
10896;SDS011;5501;51.176;6.470;2023-07-09T06:11:49;6.25;;;5.18;;
10896;SDS011;5501;51.176;6.470;2023-07-09T06:16:50;6.18;;;5.00;;
10896;SDS011;5501;51.176;6.470;2023-07-09T06:21:52;7.65;;;6.38;;
10896;SDS011;5501;51.176;6.470;2023-07-09T06:26:53;10.15;;;7.10;;
10896;SDS011;5501;51.176;6.470;2023-07-09T06:31:55;6.80;;;5.85;;
10896;SDS011;5501;51.176;6.470;2023-07-09T06:36:56;7.78;;;5.38;;
10896;SDS011;5501;51.176;6.470;2023-07-09T06:41:58;7.95;;;6.05;;
10896;SDS011;5501;51.176;6.470;2023-07-09T06:47:11;7.05;;;5.95;;
10896;SDS011;5501;51.176;6.470;2023-07-09T06:52:13;5.85;;;5.38;;
10896;SDS011;5501;51.176;6.470;2023-07-09T06:57:14;5.63;;;5.13;;
10896;SDS011;5501;51.176;6.470;2023-07-09T07:02:16;6.18;;;5.50;;
10896;SDS011;5501;51.176;6.470;2023-07-09T07:07:19;6.20;;;5.03;;
10896;SDS011;5501;51.176;6.470;2023-07-09T07:12:24;6.88;;;5.05;;
10896;SDS011;5501;51.176;6.470;2023-07-09T07:22:31;6.32;;;5.30;;
10896;SDS011;5501;51.176;6.470;2023-07-09T07:27:33;6.40;;;4.57;;
10896;SDS011;5501;51.176;6.470;2023-07-09T07:32:35;7.03;;;5.82;;
10896;SDS011;5501;51.176;6.470;2023-07-09T07:37:41;6.28;;;5.28;;
10896;SDS011;5501;51.176;6.470;2023-07-09T07:42:43;8.60;;;5.30;;
10896;SDS011;5501;51.176;6.470;2023-07-09T07:47:44;6.72;;;5.82;;
10896;SDS011;5501;51.176;6.470;2023-07-09T07:52:46;7.28;;;5.88;;
10896;SDS011;5501;51.176;6.470;2023-07-09T07:57:48;6.32;;;5.72;;
10896;SDS011;5501;51.176;6.470;2023-07-09T08:02:49;7.57;;;6.13;;
10896;SDS011;5501;51.176;6.470;2023-07-09T08:07:52;5.97;;;5.35;;
10896;SDS011;5501;51.176;6.470;2023-07-09T08:12:54;7.95;;;5.55;;
10896;SDS011;5501;51.176;6.470;2023-07-09T08:17:58;8.55;;;6.03;;
10896;SDS011;5501;51.176;6.470;2023-07-09T08:23:00;6.78;;;6.18;;
10896;SDS011;5501;51.176;6.470;2023-07-09T08:28:01;5.40;;;4.88;;
10896;SDS011;5501;51.176;6.470;2023-07-09T08:33:03;7.72;;;6.00;;
10896;SDS011;5501;51.176;6.470;2023-07-09T08:38:05;6.68;;;5.03;;
10896;SDS011;5501;51.176;6.470;2023-07-09T08:43:10;9.85;;;5.88;;
10896;SDS011;5501;51.176;6.470;2023-07-09T08:48:32;5.25;;;4.75;;
10896;SDS011;5501;51.176;6.470;2023-07-09T08:53:36;5.07;;;4.55;;
10896;SDS011;5501;51.176;6.470;2023-07-09T08:58:42;6.80;;;4.82;;
10896;SDS011;5501;51.176;6.470;2023-07-09T09:03:49;4.60;;;4.20;;
10896;SDS011;5501;51.176;6.470;2023-07-09T09:09:12;4.88;;;4.30;;
10896;SDS011;5501;51.176;6.470;2023-07-09T09:14:28;5.05;;;4.35;;
10896;SDS011;5501;51.176;6.470;2023-07-09T09:19:38;5.53;;;3.67;;
10896;SDS011;5501;51.176;6.470;2023-07-09T09:30:18;6.65;;;4.68;;
10896;SDS011;5501;51.176;6.470;2023-07-09T09:35:25;6.07;;;3.25;;
10896;SDS011;5501;51.176;6.470;2023-07-09T09:40:33;7.05;;;3.30;;
10896;SDS011;5501;51.176;6.470;2023-07-09T09:45:38;4.22;;;2.90;;
10896;SDS011;5501;51.176;6.470;2023-07-09T09:50:40;3.65;;;3.15;;
10896;SDS011;5501;51.176;6.470;2023-07-09T09:55:42;5.68;;;2.90;;
10896;SDS011;5501;51.176;6.470;2023-07-09T10:00:47;3.80;;;2.95;;
10896;SDS011;5501;51.176;6.470;2023-07-09T10:05:52;5.15;;;3.00;;
10896;SDS011;5501;51.176;6.470;2023-07-09T10:11:04;4.47;;;2.78;;
10896;SDS011;5501;51.176;6.470;2023-07-09T10:16:32;3.47;;;2.65;;
10896;SDS011;5501;51.176;6.470;2023-07-09T10:21:45;3.78;;;2.60;;
10896;SDS011;5501;51.176;6.470;2023-07-09T10:27:12;4.80;;;2.83;;
10896;SDS011;5501;51.176;6.470;2023-07-09T10:42:57;6.28;;;2.92;;
10896;SDS011;5501;51.176;6.470;2023-07-09T10:48:02;3.80;;;2.92;;
10896;SDS011;5501;51.176;6.470;2023-07-09T10:53:29;4.80;;;2.70;;
10896;SDS011;5501;51.176;6.470;2023-07-09T10:58:43;3.70;;;2.78;;
10896;SDS011;5501;51.176;6.470;2023-07-09T11:03:55;3.30;;;2.58;;
10896;SDS011;5501;51.176;6.470;2023-07-09T11:09:01;3.38;;;2.60;;
10896;SDS011;5501;51.176;6.470;2023-07-09T11:14:26;3.30;;;2.78;;
10896;SDS011;5501;51.176;6.470;2023-07-09T11:19:40;2.88;;;2.30;;
10896;SDS011;5501;51.176;6.470;2023-07-09T11:24:45;4.40;;;2.65;;
10896;SDS011;5501;51.176;6.470;2023-07-09T11:35:08;5.68;;;2.65;;
10896;SDS011;5501;51.176;6.470;2023-07-09T11:40:11;4.13;;;2.88;;
10896;SDS011;5501;51.176;6.470;2023-07-09T11:45:16;3.95;;;2.10;;
10896;SDS011;5501;51.176;6.470;2023-07-09T11:50:28;6.13;;;2.45;;
10896;SDS011;5501;51.176;6.470;2023-07-09T11:55:40;5.07;;;3.00;;
10896;SDS011;5501;51.176;6.470;2023-07-09T12:00:54;2.80;;;2.50;;
10896;SDS011;5501;51.176;6.470;2023-07-09T12:06:01;3.72;;;2.25;;
10896;SDS011;5501;51.176;6.470;2023-07-09T12:11:05;4.97;;;2.53;;
10896;SDS011;5501;51.176;6.470;2023-07-09T12:16:19;3.25;;;2.28;;
10896;SDS011;5501;51.176;6.470;2023-07-09T12:21:27;3.97;;;2.53;;
10896;SDS011;5501;51.176;6.470;2023-07-09T12:26:30;3.00;;;2.60;;
10896;SDS011;5501;51.176;6.470;2023-07-09T12:31:32;6.90;;;2.63;;
10896;SDS011;5501;51.176;6.470;2023-07-09T12:36:35;2.40;;;1.90;;
10896;SDS011;5501;51.176;6.470;2023-07-09T12:41:44;4.43;;;3.33;;
10896;SDS011;5501;51.176;6.470;2023-07-09T12:46:46;7.55;;;2.55;;
10896;SDS011;5501;51.176;6.470;2023-07-09T12:51:50;3.00;;;1.90;;
10896;SDS011;5501;51.176;6.470;2023-07-09T12:56:53;3.95;;;2.25;;
10896;SDS011;5501;51.176;6.470;2023-07-09T13:02:11;2.72;;;2.33;;
10896;SDS011;5501;51.176;6.470;2023-07-09T13:07:38;2.00;;;1.80;;
10896;SDS011;5501;51.176;6.470;2023-07-09T13:12:40;5.15;;;3.00;;
10896;SDS011;5501;51.176;6.470;2023-07-09T13:17:42;3.42;;;2.40;;
10896;SDS011;5501;51.176;6.470;2023-07-09T13:22:44;2.58;;;2.30;;
10896;SDS011;5501;51.176;6.470;2023-07-09T13:27:46;7.90;;;3.55;;
10896;SDS011;5501;51.176;6.470;2023-07-09T13:32:48;7.45;;;4.85;;
10896;SDS011;5501;51.176;6.470;2023-07-09T13:37:50;4.97;;;4.30;;
10896;SDS011;5501;51.176;6.470;2023-07-09T13:42:52;7.47;;;3.80;;
10896;SDS011;5501;51.176;6.470;2023-07-09T13:47:56;3.38;;;3.08;;
10896;SDS011;5501;51.176;6.470;2023-07-09T13:52:57;3.60;;;3.30;;
10896;SDS011;5501;51.176;6.470;2023-07-09T13:57:59;4.30;;;3.92;;
10896;SDS011;5501;51.176;6.470;2023-07-09T14:03:01;4.47;;;4.03;;
10896;SDS011;5501;51.176;6.470;2023-07-09T14:08:02;7.82;;;5.22;;
10896;SDS011;5501;51.176;6.470;2023-07-09T14:13:04;6.18;;;5.10;;
10896;SDS011;5501;51.176;6.470;2023-07-09T14:18:13;8.25;;;6.78;;
10896;SDS011;5501;51.176;6.470;2023-07-09T14:23:17;5.25;;;4.65;;
10896;SDS011;5501;51.176;6.470;2023-07-09T14:28:20;5.95;;;5.32;;
10896;SDS011;5501;51.176;6.470;2023-07-09T14:33:23;6.93;;;6.32;;
10896;SDS011;5501;51.176;6.470;2023-07-09T14:38:24;9.52;;;8.50;;
10896;SDS011;5501;51.176;6.470;2023-07-09T14:43:26;10.77;;;7.95;;
10896;SDS011;5501;51.176;6.470;2023-07-09T14:48:28;9.05;;;8.20;;
10896;SDS011;5501;51.176;6.470;2023-07-09T14:53:29;7.85;;;7.15;;
10896;SDS011;5501;51.176;6.470;2023-07-09T14:58:31;9.63;;;8.73;;
10896;SDS011;5501;51.176;6.470;2023-07-09T15:03:32;9.82;;;8.93;;
10896;SDS011;5501;51.176;6.470;2023-07-09T15:08:34;9.90;;;9.18;;
10896;SDS011;5501;51.176;6.470;2023-07-09T15:13:36;8.43;;;7.82;;
10896;SDS011;5501;51.176;6.470;2023-07-09T15:18:38;9.07;;;8.20;;
10896;SDS011;5501;51.176;6.470;2023-07-09T15:23:40;8.90;;;8.30;;
10896;SDS011;5501;51.176;6.470;2023-07-09T15:28:45;9.15;;;8.23;;
10896;SDS011;5501;51.176;6.470;2023-07-09T15:33:50;10.70;;;8.43;;
10896;SDS011;5501;51.176;6.470;2023-07-09T15:38:52;9.43;;;8.63;;
10896;SDS011;5501;51.176;6.470;2023-07-09T15:43:53;9.43;;;8.65;;
10896;SDS011;5501;51.176;6.470;2023-07-09T15:48:56;8.63;;;7.70;;
10896;SDS011;5501;51.176;6.470;2023-07-09T15:53:58;9.15;;;8.45;;
10896;SDS011;5501;51.176;6.470;2023-07-09T15:58:59;8.10;;;7.43;;
10896;SDS011;5501;51.176;6.470;2023-07-09T16:04:02;9.73;;;8.30;;
10896;SDS011;5501;51.176;6.470;2023-07-09T16:09:10;8.00;;;7.43;;
10896;SDS011;5501;51.176;6.470;2023-07-09T16:14:17;9.85;;;7.85;;
10896;SDS011;5501;51.176;6.470;2023-07-09T16:19:23;9.63;;;8.73;;
10896;SDS011;5501;51.176;6.470;2023-07-09T16:24:27;9.00;;;8.20;;
10896;SDS011;5501;51.176;6.470;2023-07-09T16:29:31;9.43;;;8.82;;
10896;SDS011;5501;51.176;6.470;2023-07-09T16:34:34;7.47;;;6.38;;
10896;SDS011;5501;51.176;6.470;2023-07-09T16:39:40;10.75;;;9.68;;
10896;SDS011;5501;51.176;6.470;2023-07-09T16:44:43;8.18;;;7.38;;
10896;SDS011;5501;51.176;6.470;2023-07-09T16:49:45;10.52;;;9.48;;
10896;SDS011;5501;51.176;6.470;2023-07-09T16:54:47;11.25;;;10.38;;
10896;SDS011;5501;51.176;6.470;2023-07-09T16:59:48;11.43;;;10.43;;
10896;SDS011;5501;51.176;6.470;2023-07-09T17:04:54;15.15;;;12.63;;
10896;SDS011;5501;51.176;6.470;2023-07-09T17:09:57;12.45;;;11.27;;
10896;SDS011;5501;51.176;6.470;2023-07-09T17:14:59;12.15;;;10.95;;
10896;SDS011;5501;51.176;6.470;2023-07-09T17:20:08;11.60;;;10.57;;
10896;SDS011;5501;51.176;6.470;2023-07-09T17:25:21;11.85;;;10.75;;
10896;SDS011;5501;51.176;6.470;2023-07-09T17:30:24;13.45;;;12.13;;
10896;SDS011;5501;51.176;6.470;2023-07-09T17:35:28;12.68;;;10.60;;
10896;SDS011;5501;51.176;6.470;2023-07-09T17:40:34;13.07;;;11.85;;
10896;SDS011;5501;51.176;6.470;2023-07-09T17:45:39;12.18;;;11.07;;
10896;SDS011;5501;51.176;6.470;2023-07-09T17:50:41;12.60;;;11.43;;
10896;SDS011;5501;51.176;6.470;2023-07-09T17:55:42;12.52;;;11.00;;
10896;SDS011;5501;51.176;6.470;2023-07-09T18:00:44;15.38;;;13.95;;
10896;SDS011;5501;51.176;6.470;2023-07-09T18:05:46;13.07;;;11.82;;
10896;SDS011;5501;51.176;6.470;2023-07-09T18:10:47;12.93;;;11.88;;
10896;SDS011;5501;51.176;6.470;2023-07-09T18:15:50;13.77;;;12.57;;
10896;SDS011;5501;51.176;6.470;2023-07-09T18:20:53;12.23;;;11.13;;
10896;SDS011;5501;51.176;6.470;2023-07-09T18:25:54;12.57;;;11.43;;
10896;SDS011;5501;51.176;6.470;2023-07-09T18:30:56;11.23;;;10.20;;
10896;SDS011;5501;51.176;6.470;2023-07-09T18:36:16;11.57;;;10.57;;
10896;SDS011;5501;51.176;6.470;2023-07-09T18:41:18;10.75;;;9.65;;
10896;SDS011;5501;51.176;6.470;2023-07-09T18:46:20;13.00;;;11.88;;
10896;SDS011;5501;51.176;6.470;2023-07-09T18:51:21;14.68;;;11.27;;
10896;SDS011;5501;51.176;6.470;2023-07-09T18:56:23;10.93;;;10.00;;
10896;SDS011;5501;51.176;6.470;2023-07-09T19:01:24;12.52;;;11.43;;
10896;SDS011;5501;51.176;6.470;2023-07-09T19:06:26;11.23;;;10.13;;
10896;SDS011;5501;51.176;6.470;2023-07-09T19:11:27;14.02;;;12.63;;
10896;SDS011;5501;51.176;6.470;2023-07-09T19:16:29;14.15;;;11.45;;
10896;SDS011;5501;51.176;6.470;2023-07-09T19:21:31;13.25;;;10.32;;
10896;SDS011;5501;51.176;6.470;2023-07-09T19:26:32;12.73;;;11.68;;
10896;SDS011;5501;51.176;6.470;2023-07-09T19:31:34;12.45;;;11.32;;
10896;SDS011;5501;51.176;6.470;2023-07-09T19:36:38;13.48;;;11.82;;
10896;SDS011;5501;51.176;6.470;2023-07-09T19:41:39;11.93;;;10.63;;
10896;SDS011;5501;51.176;6.470;2023-07-09T19:46:41;13.32;;;12.13;;
10896;SDS011;5501;51.176;6.470;2023-07-09T19:51:42;12.68;;;9.60;;
10896;SDS011;5501;51.176;6.470;2023-07-09T19:56:45;13.82;;;12.43;;
10896;SDS011;5501;51.176;6.470;2023-07-09T20:01:49;12.23;;;10.82;;
10896;SDS011;5501;51.176;6.470;2023-07-09T20:06:51;12.25;;;10.60;;
10896;SDS011;5501;51.176;6.470;2023-07-09T20:11:53;12.65;;;11.52;;
10896;SDS011;5501;51.176;6.470;2023-07-09T20:16:54;12.07;;;10.88;;
10896;SDS011;5501;51.176;6.470;2023-07-09T20:21:56;15.60;;;12.27;;
10896;SDS011;5501;51.176;6.470;2023-07-09T20:26:57;13.23;;;12.13;;
10896;SDS011;5501;51.176;6.470;2023-07-09T20:31:59;14.10;;;12.82;;
10896;SDS011;5501;51.176;6.470;2023-07-09T20:37:00;13.70;;;12.40;;
10896;SDS011;5501;51.176;6.470;2023-07-09T20:42:02;14.85;;;13.27;;
10896;SDS011;5501;51.176;6.470;2023-07-09T20:47:12;14.38;;;13.02;;
10896;SDS011;5501;51.176;6.470;2023-07-09T20:52:16;16.05;;;13.95;;
10896;SDS011;5501;51.176;6.470;2023-07-09T20:57:19;18.55;;;15.85;;
10896;SDS011;5501;51.176;6.470;2023-07-09T21:02:22;16.23;;;14.73;;
10896;SDS011;5501;51.176;6.470;2023-07-09T21:07:25;17.85;;;16.05;;
10896;SDS011;5501;51.176;6.470;2023-07-09T21:12:27;16.48;;;14.63;;
10896;SDS011;5501;51.176;6.470;2023-07-09T21:17:28;17.05;;;15.45;;
10896;SDS011;5501;51.176;6.470;2023-07-09T21:22:30;16.73;;;14.45;;
10896;SDS011;5501;51.176;6.470;2023-07-09T21:27:31;15.15;;;13.82;;
10896;SDS011;5501;51.176;6.470;2023-07-09T21:32:33;17.13;;;15.43;;
10896;SDS011;5501;51.176;6.470;2023-07-09T21:37:35;15.07;;;13.65;;
10896;SDS011;5501;51.176;6.470;2023-07-09T21:42:36;15.60;;;14.20;;
10896;SDS011;5501;51.176;6.470;2023-07-09T21:47:38;16.90;;;15.30;;
10896;SDS011;5501;51.176;6.470;2023-07-09T21:52:39;15.00;;;13.70;;
10896;SDS011;5501;51.176;6.470;2023-07-09T21:57:48;15.70;;;14.10;;
10896;SDS011;5501;51.176;6.470;2023-07-09T22:02:50;16.58;;;15.10;;
10896;SDS011;5501;51.176;6.470;2023-07-09T22:07:54;14.57;;;13.30;;
10896;SDS011;5501;51.176;6.470;2023-07-09T22:12:57;16.30;;;14.77;;
10896;SDS011;5501;51.176;6.470;2023-07-09T22:17:59;13.43;;;11.98;;
10896;SDS011;5501;51.176;6.470;2023-07-09T22:23:02;15.18;;;13.77;;
10896;SDS011;5501;51.176;6.470;2023-07-09T22:28:08;14.52;;;13.13;;
10896;SDS011;5501;51.176;6.470;2023-07-09T22:33:14;15.65;;;14.05;;
10896;SDS011;5501;51.176;6.470;2023-07-09T22:38:20;15.07;;;13.65;;
10896;SDS011;5501;51.176;6.470;2023-07-09T22:43:23;14.38;;;13.18;;
10896;SDS011;5501;51.176;6.470;2023-07-09T22:48:24;14.38;;;13.05;;
10896;SDS011;5501;51.176;6.470;2023-07-09T22:53:27;14.30;;;13.20;;
10896;SDS011;5501;51.176;6.470;2023-07-09T22:58:29;14.35;;;13.13;;
10896;SDS011;5501;51.176;6.470;2023-07-09T23:03:35;14.32;;;12.90;;
10896;SDS011;5501;51.176;6.470;2023-07-09T23:08:42;14.48;;;13.27;;
10896;SDS011;5501;51.176;6.470;2023-07-09T23:13:44;14.02;;;11.50;;
10896;SDS011;5501;51.176;6.470;2023-07-09T23:18:46;14.63;;;13.32;;
10896;SDS011;5501;51.176;6.470;2023-07-09T23:23:49;15.57;;;14.00;;
10896;SDS011;5501;51.176;6.470;2023-07-09T23:29:00;13.80;;;12.50;;
10896;SDS011;5501;51.176;6.470;2023-07-09T23:34:01;12.57;;;10.85;;
10896;SDS011;5501;51.176;6.470;2023-07-09T23:39:03;14.02;;;12.93;;
10896;SDS011;5501;51.176;6.470;2023-07-09T23:44:11;14.43;;;13.02;;
10896;SDS011;5501;51.176;6.470;2023-07-09T23:49:34;15.52;;;12.10;;
10896;SDS011;5501;51.176;6.470;2023-07-09T23:54:36;17.13;;;13.85;;
10896;SDS011;5501;51.176;6.470;2023-07-09T23:59:37;15.27;;;13.95;;
